• Join FlightAware (Why Join?)
  • Login
  • US Flag 
03:23AM EDT


 

Airport Tracker/Info


-or-


 

Live Flight TrackerFlight Track Log ✈ N960DL ✈ 16-Jul-2013 ✈ KMIA - KLGA

Flight Track Log - Related Links

Times and Time Zones

All times are in EDT time to prevent confusion due to time zone crossing. See the N960DL flight status page for this flight to view local times or setup timezone preferences in your user account.

Time Position Orientation Groundspeed Altitude Reporting Facility
EDT Latitude Longitude Course Direction KTS MPH feet Rate Location/Type
11:17AM 25.7983 -80.2675 20° North 165 190 1,100  Level Miami Center
11:18AM 25.8022 -80.1847 87° East 231 266 4,000 2,460 Climbing Miami Center
11:19AM 26.1063 -80.1469 24° Northeast  Level FlightAware Approximate
11:20AM 26.2130 -80.0982 20° North  Level FlightAware Approximate
11:20AM 25.9089 -80.1831 North 294 338 8,400  Level Miami Center
11:21AM 26.3216 -80.0547 20° North  Level FlightAware Approximate
11:21AM 25.9789 -80.2311 328° Northwest 294 338 10,800  Level Miami Center
11:22AM 26.4253 -79.9999 20° North  Level FlightAware Approximate
11:22AM 26.0506 -80.2933 322° Northwest 305 351 13,100  Level Miami Center
11:23AM 26.1328 -80.3442 331° Northwest 326 375 15,400 2,340 Climbing Miami Center
11:24AM 26.2214 -80.3956 333° Northwest 343 395 17,800 2,100 Climbing Miami Center
11:25AM 26.3100 -80.4492 332° Northwest 355 409 19,600 1,800 Climbing Miami Center
11:26AM 26.4067 -80.5031 333° Northwest 368 423 21,400 1,680 Climbing Miami Center
11:27AM 26.5033 -80.5617 332° Northwest 378 435 23,000 1,620 Climbing Miami Center
11:28AM 26.6103 -80.6325 329° Northwest 397 457 24,700 1,680 Climbing Miami Center
11:29AM 26.7022 -80.7097 323° Northwest 414 476 26,400 1,320 Climbing Miami Center
11:30AM 26.7939 -80.7942 321° Northwest 420 483 27,400 1,020 Climbing Miami Center
11:31AM 26.8875 -80.8764 322° Northwest 425 489 28,500 780 Climbing Miami Center
11:32AM 26.9878 -80.9522 326° Northwest 431 496 29,000 780 Climbing Miami Center
11:33AM 27.1108 -80.9589 357° North 418 481 30,100 960 Climbing Miami Center
11:34AM 27.2325 -80.9397 North 423 487 31,000 900 Climbing Miami Center
11:35AM 27.3456 -80.9228 North 435 501 31,900 900 Climbing Miami Center
11:36AM 27.4714 -80.9086 North 448 516 32,800 600 Climbing Miami Center
11:37AM 27.6011 -80.8919 North 455 524 33,100  Climbing Miami Center
11:38AM 27.7269 -80.8731 North 460 529 32,900 -60 Descending Miami Center
11:39AM 27.8394 -80.8064 28° Northeast 453 521 33,000  Climbing Miami Center
11:40AM 27.9381 -80.7114 40° Northeast 445 512 33,000  Level Miami Center
11:41AM 28.0344 -80.6181 41° Northeast 452 520 33,000  Level Miami Center
11:42AM 28.1328 -80.5225 41° Northeast 457 526 33,000  Level Miami Center
11:43AM 28.2292 -80.4314 40° Northeast 455 524 33,000  Level Miami Center
11:44AM 28.3358 -80.3286 40° Northeast 455 524 33,000  Level Miami Center
11:45AM 28.4322 -80.2325 41° Northeast 455 524 33,000  Level Miami Center
11:46AM 28.5283 -80.1386 41° Northeast 450 518 33,000  Level Miami Center
11:47AM 28.6136 -80.0511 42° Northeast 450 518 33,000  Level Miami Center
11:48AM 28.7075 -79.9544 42° Northeast 450 518 33,000 -60 Level Miami Center
11:49AM 28.8014 -79.8600 41° Northeast 445 512 32,900  Descending Miami Center
11:50AM 28.8478 -79.7308 68° East 439 505 33,000  Climbing Miami Center
11:51AM 28.8756 -79.5942 77° East 425 489 33,000  Level Miami Center
11:52AM 28.8992 -79.4525 79° East 435 501 33,000  Level Miami Center
11:53AM 28.9556 -79.3281 63° Northeast 433 498 33,000  Level Miami Center
11:54AM 29.0733 -79.2736 22° Northeast 407 468 33,000 -420 Level Miami Center
11:55AM 29.1789 -79.1928 34° Northeast 431 496 32,200 -1,020 Descending Miami Center
11:56AM 29.3025 -79.1572 14° North 442 509 31,000 -600 Descending Miami Center
11:57AM 29.4322 -79.1339 North 447 514 31,000  Level Miami Center
11:58AM 29.5558 -79.1031 12° North 447 514 31,000  Level Miami Center
12:00PM 29.8572 -79.0300 12° North 459 528 31,000  Level Jacksonville Center
12:01PM 29.9794 -78.9964 13° North 463 533 31,000  Level Jacksonville Center
12:02PM 30.1017 -78.9672 12° North 444 511 31,000  Level Jacksonville Center
12:03PM 30.2217 -78.9289 15° North 450 518 31,000  Level Jacksonville Center
12:04PM 30.3422 -78.9117 North 450 518 31,000  Level Jacksonville Center
12:05PM 30.4622 -78.8803 13° North 450 518 31,000  Level Jacksonville Center
12:06PM 30.5886 -78.8508 11° North 450 518 31,000  Level Jacksonville Center
12:07PM 30.7131 -78.8214 11° North 450 518 31,000  Level Jacksonville Center
12:08PM 30.8494 -78.7842 13° North 457 526 31,000  Level Jacksonville Center
12:09PM 30.9717 -78.7544 12° North 457 526 31,000  Level Jacksonville Center
12:10PM 31.1003 -78.7247 11° North 450 518 31,000  Level Jacksonville Center
12:11PM 31.2203 -78.6975 11° North 450 518 31,000  Level Jacksonville Center
12:12PM 31.3464 -78.6625 13° North 450 518 31,000  Level Jacksonville Center
12:13PM 31.4708 -78.6325 12° North 450 518 31,000  Level Jacksonville Center
12:14PM 31.5950 -78.6000 13° North 450 518 31,000  Level Jacksonville Center
12:15PM 31.7192 -78.5700 12° North 452 520 31,000  Level Jacksonville Center
12:16PM 31.8414 -78.5397 12° North 452 520 31,000  Level Jacksonville Center
12:17PM 31.9653 -78.5044 14° North 452 520 31,000  Level Jacksonville Center
12:18PM 32.0894 -78.4717 13° North 447 514 31,000  Level Jacksonville Center
12:19PM 32.2094 -78.4436 11° North 447 514 31,000  Level Jacksonville Center
12:20PM 32.3375 -78.4081 13° North 447 514 31,000  Level Jacksonville Center
12:21PM 32.4492 -78.3778 13° North 447 514 31,000  Level Jacksonville Center
12:22PM 32.5733 -78.3444 13° North 447 514 31,000  Level Jacksonville Center
12:23PM 32.6972 -78.3111 13° North 447 514 31,000  Level Jacksonville Center
12:24PM 32.8214 -78.2828 11° North 447 514 31,000  Level Jacksonville Center
12:25PM 32.9433 -78.2492 13° North 447 514 31,000  Level Jacksonville Center
12:26PM 33.0653 -78.2181 12° North 447 514 31,000  Level Jacksonville Center
12:27PM 33.1894 -78.1867 12° North 447 514 31,000  Level Jacksonville Center
12:28PM 33.3133 -78.1553 12° North 447 514 31,000  Level Jacksonville Center
12:29PM 33.4375 -78.1239 12° North 447 514 31,000  Level Jacksonville Center
12:30PM 33.6161 -78.0778 12° North 453 521 31,000  Level Washington Center
12:31PM 33.7378 -78.0464 12° North 453 521 31,000  Level Washington Center
12:32PM 33.8594 -78.0150 12° North 447 514 31,000  Level Washington Center
12:33PM 34.0000 -77.9742 14° North 447 514 31,000  Level Washington Center
12:34PM 34.1236 -77.9425 12° North 454 522 31,000  Level Washington Center
12:35PM 34.2433 -77.9133 11° North 449 517 31,000  Level Washington Center
12:36PM 34.3711 -77.8867 10° North 454 522 31,000  Level Washington Center
12:37PM 34.4944 -77.8725 North 454 522 31,000  Level Washington Center
12:38PM 34.6197 -77.8583 North 449 517 31,000  Level Washington Center
12:39PM 34.7453 -77.8417 North 444 511 31,000  Level Washington Center
12:40PM 34.8667 -77.8197 North 444 511 31,000  Level Washington Center
12:41PM 34.9942 -77.8056 North 444 511 31,000  Level Washington Center
12:42PM 35.1197 -77.7961 North 444 511 31,000  Level Washington Center
12:43PM 35.2453 -77.7792 North 449 517 31,000  Level Washington Center
12:44PM 35.3603 -77.7644 North 449 517 31,000  Level Washington Center
12:45PM 35.4856 -77.7525 North 449 517 31,000  Level Washington Center
12:46PM 35.6131 -77.7356 North 449 517 31,000  Level Washington Center
12:47PM 35.7386 -77.7236 North 449 517 31,000  Level Washington Center
12:48PM 35.8661 -77.7067 North 449 517 31,000  Level Washington Center
12:49PM 35.9917 -77.6867 North 449 517 31,000  Level Washington Center
12:50PM 36.1114 -77.6386 18° North 443 510 31,000  Level Washington Center
12:51PM 36.2269 -77.5900 19° North 443 510 31,000  Level Washington Center
12:52PM 36.3511 -77.5392 18° North 443 510 31,000  Level Washington Center
12:53PM 36.4706 -77.4903 18° North 448 516 31,000  Level Washington Center
12:54PM 36.5967 -77.4339 20° North 443 510 31,000  Level Washington Center
12:55PM 36.7186 -77.3825 19° North 448 516 31,000  Level Washington Center
12:56PM 36.8236 -77.3356 20° North 448 516 31,000  Level Washington Center
12:57PM 36.9578 -77.2814 18° North 448 516 31,000  Level Washington Center
12:58PM 37.0628 -77.2317 21° North 448 516 31,000  Level Washington Center
12:59PM 37.1950 -77.1719 20° North 448 516 31,000  Level Washington Center
01:00PM 37.3167 -77.1144 21° North 448 516 31,000  Level Washington Center
01:01PM 37.4303 -77.0381 28° Northeast 454 522 31,000  Level Washington Center
01:02PM 37.5419 -76.9539 31° Northeast 464 534 31,000  Level Washington Center
01:03PM 37.6511 -76.8744 30° Northeast 464 534 31,000  Level Washington Center
01:04PM 37.7628 -76.7897 31° Northeast 459 528 31,000  Level Washington Center
01:05PM 37.8636 -76.7150 30° Northeast 464 534 31,000  Level Washington Center
01:06PM 37.9872 -76.6219 31° Northeast 464 534 31,000  Level Washington Center
01:07PM 38.1006 -76.5392 30° Northeast 469 540 31,000  Level Washington Center
01:08PM 38.2119 -76.4533 31° Northeast 469 540 31,000  Level Washington Center
01:09PM 38.3208 -76.3672 32° Northeast 469 540 31,000  Level Washington Center
01:10PM 38.4236 -76.2728 36° Northeast 464 534 31,000  Level Washington Center
01:11PM 38.5303 -76.1783 35° Northeast 464 534 31,000 -480 Level Washington Center
01:12PM 38.6225 -76.0886 37° Northeast 464 534 30,100 -1,260 Descending Washington Center
01:13PM 38.7272 -75.9933 35° Northeast 464 534 28,600 -1,320 Descending Washington Center
01:14PM 38.8336 -75.8981 35° Northeast 464 534 27,500 -840 Descending Washington Center
01:15PM 38.9339 -75.7972 38° Northeast 459 528 27,000 -300 Descending Washington Center
01:16PM 39.0361 -75.7039 35° Northeast 459 528 27,000  Level Washington Center
01:17PM 39.1383 -75.6050 37° Northeast 459 528 27,000 -60 Level Washington Center
01:18PM 39.2383 -75.5111 36° Northeast 454 522 26,900 -780 Descending Washington Center
01:19PM 39.3406 -75.4197 35° Northeast 454 522 25,500 -1,440 Descending Washington Center
01:20PM 39.4403 -75.3281 35° Northeast 449 517 24,000 -1,620 Descending Washington Center
01:21PM 39.5358 -75.2417 35° Northeast 439 505 22,400 -1,860 Descending Washington Center
01:22PM 39.6272 -75.1550 36° Northeast 419 482 20,300 -2,040 Descending Washington Center
01:23PM 39.7269 -75.0656 35° Northeast 402 463 18,400 -1,560 Descending Washington Center
01:24PM 39.8058 -74.9972 34° Northeast 390 449 17,300 -1,140 Descending Washington Center
01:25PM 39.8889 -74.9289 32° Northeast 357 411 16,200 -1,320 Descending Washington Center
01:26PM 39.9500 -74.8500 45° Northeast 305 351 14,600 -1,680 Descending New York TRACON
01:27PM 40.0167 -74.7667 44° Northeast 299 344 12,800 -1,740 Descending New York TRACON
01:28PM 40.0667 -74.6833 52° Northeast 283 326 11,200 -1,440 Descending New York TRACON
01:29PM 40.1167 -74.6167 46° Northeast 257 296 10,000 -600 Descending New York TRACON
01:30PM 40.1667 -74.5500 46° Northeast 233 268 10,000  Level New York TRACON
01:31PM 40.2000 -74.5000 49° Northeast 235 270 10,000 -600 Level New York TRACON
01:32PM 40.2500 -74.4333 45° Northeast 231 266 8,800 -1,320 Descending New York TRACON
01:33PM 40.3000 -74.3667 45° Northeast 224 258 7,400 -900 Descending New York TRACON
01:34PM 40.3500 -74.3167 37° Northeast 211 243 7,000 -240 Descending New York TRACON
01:35PM 40.3833 -74.2667 49° Northeast 218 251 7,000  Level New York TRACON
01:36PM 40.4333 -74.2167 37° Northeast 219 252 7,000 -360 Level New York TRACON
01:37PM 40.4833 -74.1667 37° Northeast 213 245 6,300 -1,020 Descending New York TRACON
01:38PM 40.5333 -74.1333 27° Northeast 222 255 5,000 -1,380 Descending New York TRACON
01:39PM 40.5667 -74.0833 49° Northeast 220 253 3,600 -1,260 Descending New York TRACON
01:40PM 40.6167 -74.0333 37° Northeast 217 250 2,500 -600 Descending New York TRACON
01:41PM 40.6667 -73.9833 37° Northeast 213 245 2,500  Level New York TRACON